Time;durP1;ratioP1;P1;durP2;ratioP2;P2;SDS_P1;SDS_P2;PMS_P1;PMS_P2;Temp;Humidity;BMP_temperature;BMP_pressure;BME280_temperature;BME280_humidity;BME280_pressure;Samples;Min_cycle;Max_cycle;Signal;HPM_P1;HPM_P2
2021/11/14 00:00:09;;;;;;;8.83;8.13;;;;;;;8.12;89.91;100853.50;5019173;28;20218;-78
2021/11/14 00:02:36;;;;;;;10.20;9.30;;;;;;;8.06;89.99;100861.31;5021790;28;20715;-78
2021/11/14 00:05:04;;;;;;;9.97;8.97;;;;;;;8.10;90.54;100848.28;5019853;28;20847;-79
2021/11/14 00:07:30;;;;;;;9.43;8.70;;;;;;;8.15;90.85;100838.75;5017579;28;20676;-79
2021/11/14 00:09:57;;;;;;;10.43;9.43;;;;;;;8.12;90.67;100843.09;5019925;28;20682;-78
2021/11/14 00:12:23;;;;;;;9.60;8.80;;;;;;;8.10;90.04;100857.81;5021889;28;20255;-78
2021/11/14 00:14:50;;;;;;;10.33;9.53;;;;;;;8.09;90.51;100862.16;5023885;28;20209;-79
2021/11/14 00:17:16;;;;;;;10.07;9.17;;;;;;;8.06;90.66;100856.09;5018089;28;20208;-78
2021/11/14 00:19:44;;;;;;;13.33;12.13;;;;;;;8.07;90.20;100861.31;5019561;28;20233;-78
2021/11/14 00:22:11;;;;;;;16.07;14.47;;;;;;;8.07;90.17;100871.72;5022322;28;20228;-78
2021/11/14 00:24:37;;;;;;;16.27;14.87;;;;;;;8.07;90.60;100869.09;5021185;28;20263;-79
2021/11/14 00:27:04;;;;;;;15.57;14.10;;;;;;;8.08;90.02;100876.03;5023013;28;20214;-79
2021/11/14 00:29:30;;;;;;;15.23;13.87;;;;;;;8.04;90.19;100876.03;5019714;28;20253;-79
2021/11/14 00:31:57;;;;;;;16.33;14.80;;;;;;;8.05;89.89;100875.19;5018197;28;20311;-79
2021/11/14 00:34:24;;;;;;;14.57;13.20;;;;;;;8.08;89.72;100876.03;5020337;28;20259;-78
2021/11/14 00:36:53;;;;;;;15.30;13.90;;;;;;;8.11;90.09;100877.78;5024253;28;20206;-78
2021/11/14 00:39:20;;;;;;;15.03;13.70;;;;;;;8.11;89.84;100894.22;5018875;28;20205;-79
2021/11/14 00:41:48;;;;;;;15.53;14.13;;;;;;;8.14;89.85;100907.22;5017821;28;20654;-79
2021/11/14 00:44:17;;;;;;;15.10;13.57;;;;;;;8.15;89.22;100915.91;5020147;28;20206;-78
2021/11/14 00:46:44;;;;;;;15.90;14.40;;;;;;;8.12;89.40;100915.88;5019240;28;20211;-78
2021/11/14 00:49:10;;;;;;;15.17;13.60;;;;;;;8.09;89.16;100918.50;5023090;28;20275;-78
2021/11/14 00:51:38;;;;;;;16.07;14.63;;;;;;;8.12;88.75;100923.69;5019398;28;20233;-78
2021/11/14 00:54:06;;;;;;;16.50;15.00;;;;;;;8.09;88.77;100919.38;5021888;28;20222;-78
2021/11/14 00:56:34;;;;;;;16.20;14.63;;;;;;;8.07;89.53;100907.25;5016483;28;20217;-79
2021/11/14 00:59:00;;;;;;;16.97;15.43;;;;;;;8.01;90.20;100896.81;5019072;28;20206;-78
2021/11/14 01:01:28;;;;;;;17.00;15.40;;;;;;;8.01;89.99;100889.03;5021639;28;20237;-79
2021/11/14 01:03:55;;;;;;;16.77;15.17;;;;;;;7.95;90.81;100882.13;5018649;28;20217;-78
2021/11/14 01:06:22;;;;;;;16.73;14.80;;;;;;;7.95;90.58;100871.72;5019135;28;20749;-78
2021/11/14 01:08:48;;;;;;;16.97;15.30;;;;;;;7.92;91.05;100867.38;5018888;28;20283;-79
2021/11/14 01:11:17;;;;;;;17.53;15.83;;;;;;;7.94;91.28;100862.19;5015523;28;20240;-79
2021/11/14 01:13:44;;;;;;;15.53;14.13;;;;;;;7.90;91.51;100855.25;5020464;28;20611;-78
2021/11/14 01:16:13;;;;;;;16.03;14.53;;;;;;;7.88;91.75;100854.41;5019750;28;20209;-79
2021/11/14 01:18:40;;;;;;;15.80;13.33;;;;;;;7.92;91.71;100856.13;5019619;28;20233;-78
2021/11/14 01:21:12;;;;;;;15.27;13.90;;;;;;;7.96;91.39;100866.50;5015812;28;20295;-79
2021/11/14 01:23:40;;;;;;;16.23;14.67;;;;;;;7.95;91.58;100882.13;5019636;28;20209;-79
2021/11/14 01:26:07;;;;;;;17.73;15.93;;;;;;;7.95;91.08;100883.00;5020586;28;20222;-78
2021/11/14 01:28:35;;;;;;;16.43;14.90;;;;;;;7.87;91.45;100879.53;5017892;28;20279;-78
2021/11/14 01:31:02;;;;;;;18.07;16.50;;;;;;;7.85;91.47;100878.66;5015205;28;20277;-78
2021/11/14 01:33:30;;;;;;;18.90;16.00;;;;;;;7.87;91.13;100876.94;5019268;28;20209;-79
2021/11/14 01:35:58;;;;;;;17.47;15.77;;;;;;;7.87;92.05;100863.03;5015434;28;20259;-78
2021/11/14 01:38:27;;;;;;;16.77;14.73;;;;;;;7.88;92.26;100863.06;5014342;28;20214;-78
2021/11/14 01:40:55;;;;;;;20.67;14.37;;;;;;;7.86;92.01;100854.41;5021510;28;20226;-78
2021/11/14 01:43:26;;;;;;;16.47;14.93;;;;;;;7.88;92.36;100854.41;5021451;28;20631;-78
2021/11/14 01:45:55;;;;;;;16.90;15.20;;;;;;;7.91;92.60;100857.88;5020538;28;20285;-79
2021/11/14 01:48:24;;;;;;;17.63;15.93;;;;;;;7.91;92.42;100870.00;5020667;28;20209;-79
2021/11/14 01:50:51;;;;;;;16.70;14.70;;;;;;;7.92;92.22;100877.78;5017024;28;20226;-78
2021/11/14 01:53:18;;;;;;;18.00;16.20;;;;;;;7.95;91.38;100888.19;5016689;28;20256;-78
2021/11/14 01:55:46;;;;;;;17.87;15.87;;;;;;;7.96;91.03;100894.25;5020249;28;20210;-79
2021/11/14 01:58:16;;;;;;;16.40;14.87;;;;;;;8.02;90.88;100916.78;5014394;28;20221;-79
2021/11/14 02:00:45;;;;;;;15.43;13.93;;;;;;;8.04;90.93;100926.28;5018501;28;20234;-79
2021/11/14 02:03:13;;;;;;;16.20;14.57;;;;;;;8.06;90.79;100931.50;5020644;28;20237;-79
2021/11/14 02:05:40;;;;;;;16.30;14.70;;;;;;;8.06;90.79;100937.56;5018741;28;20204;-78
2021/11/14 02:08:08;;;;;;;15.90;14.37;;;;;;;8.07;90.19;100948.84;5016433;28;20205;-77
2021/11/14 02:10:35;;;;;;;15.57;14.07;;;;;;;8.04;90.87;100949.69;5018843;28;20225;-77
2021/11/14 02:13:02;;;;;;;15.30;13.80;;;;;;;8.01;90.61;100947.13;5012128;28;20225;-78
2021/11/14 02:15:29;;;;;;;12.87;11.77;;;;;;;8.00;91.04;100934.09;5017317;28;20216;-77
2021/11/14 02:17:55;;;;;;;13.00;11.90;;;;;;;7.99;91.27;100925.44;5021278;28;20703;-77
2021/11/14 02:20:24;;;;;;;12.83;11.47;;;;;;;8.02;90.63;100941.03;5019885;28;20227;-77
2021/11/14 02:22:51;;;;;;;11.20;10.30;;;;;;;8.01;91.13;100946.22;5018317;28;20232;-77
2021/11/14 02:25:21;;;;;;;11.00;10.10;;;;;;;8.03;90.53;100954.91;5018038;28;20694;-77
2021/11/14 02:27:50;;;;;;;11.97;10.97;;;;;;;8.03;90.62;100947.13;5015511;28;20206;-78
2021/11/14 02:30:19;;;;;;;14.53;13.13;;;;;;;7.98;91.04;100941.91;5022716;28;20213;-79
2021/11/14 02:32:45;;;;;;;14.57;13.20;;;;;;;7.98;91.55;100926.31;5019232;28;20592;-79
2021/11/14 02:35:13;;;;;;;15.60;14.03;;;;;;;8.00;91.64;100937.56;5017848;28;20329;-79
2021/11/14 02:37:41;;;;;;;17.53;15.93;;;;;;;8.02;91.65;100941.03;5019545;28;20207;-79
2021/11/14 02:40:09;;;;;;;18.33;16.43;;;;;;;8.04;91.59;100954.03;5018457;28;20210;-79
2021/11/14 02:42:36;;;;;;;18.60;16.80;;;;;;;8.03;91.28;100955.78;5020628;28;20228;-79
2021/11/14 02:45:04;;;;;;;18.67;16.87;;;;;;;8.03;90.95;100955.78;5015546;28;20217;-79
2021/11/14 02:47:30;;;;;;;17.67;16.03;;;;;;;8.01;90.90;100957.50;5015115;28;20696;-79
2021/11/14 02:49:57;;;;;;;18.30;16.47;;;;;;;7.95;90.90;100960.97;5017976;28;20214;-78
2021/11/14 02:52:23;;;;;;;19.13;17.20;;;;;;;7.95;91.41;100960.13;5015887;28;20239;-79
2021/11/14 02:54:51;;;;;;;18.50;16.80;;;;;;;7.97;91.22;100958.38;5011769;28;20251;-79
2021/11/14 02:57:18;;;;;;;19.77;17.70;;;;;;;7.98;91.17;100960.09;5013918;28;21146;-79
2021/11/14 02:59:44;;;;;;;19.43;17.73;;;;;;;7.99;91.28;100958.34;5013274;28;20210;-79
2021/11/14 03:02:11;;;;;;;18.23;16.63;;;;;;;8.01;91.81;100954.91;5015625;28;20773;-79
2021/11/14 03:04:37;;;;;;;18.77;17.07;;;;;;;8.02;91.22;100955.78;5019401;28;20205;-79
2021/11/14 03:07:04;;;;;;;20.57;17.83;;;;;;;8.02;91.26;100956.63;5019905;28;20207;-79
2021/11/14 03:09:34;;;;;;;18.33;16.53;;;;;;;8.01;91.95;100956.63;5017507;28;20733;-79
2021/11/14 03:12:03;;;;;;;20.20;18.23;;;;;;;8.00;91.81;100960.97;5014934;28;20277;-79
2021/11/14 03:14:29;;;;;;;20.67;18.67;;;;;;;8.01;91.14;100970.50;5014557;28;20199;-79
2021/11/14 03:16:56;;;;;;;20.70;18.60;;;;;;;7.95;91.49;100958.38;5020478;28;20206;-79
2021/11/14 03:19:23;;;;;;;22.03;18.80;;;;;;;7.96;92.22;100951.44;5017599;28;20210;-79
2021/11/14 03:21:49;;;;;;;21.50;19.37;;;;;;;7.96;91.85;100956.63;5012451;28;20231;-79
2021/11/14 03:24:17;;;;;;;21.70;18.60;;;;;;;7.98;91.99;100956.63;5020534;28;20260;-79
2021/11/14 03:26:44;;;;;;;21.20;19.00;;;;;;;7.97;90.90;100966.19;5017236;28;20209;-79
2021/11/14 03:29:12;;;;;;;22.93;19.47;;;;;;;7.98;91.72;100964.44;5016263;28;20213;-79
2021/11/14 03:31:40;;;;;;;22.97;19.57;;;;;;;7.95;91.61;100965.31;5012692;28;20230;-79
2021/11/14 03:34:07;;;;;;;21.30;18.67;;;;;;;7.95;91.08;100962.72;5017421;28;20261;-77
2021/11/14 03:36:34;;;;;;;21.10;19.00;;;;;;;7.96;92.01;100972.22;5018161;28;20213;-77
2021/11/14 03:39:05;;;;;;;22.30;18.43;;;;;;;7.92;91.47;100975.69;5023700;28;20626;-77
2021/11/14 03:41:34;;;;;;;19.67;17.67;;;;;;;7.94;91.42;100977.41;5021839;28;20230;-77
2021/11/14 03:44:01;;;;;;;21.40;19.20;;;;;;;7.91;92.00;100980.03;5025050;28;20248;-77
2021/11/14 03:46:29;;;;;;;23.30;19.50;;;;;;;7.92;92.20;100986.94;5013648;28;20210;-77
2021/11/14 03:48:57;;;;;;;22.07;19.80;;;;;;;7.93;91.37;100983.50;5017103;28;20284;-77
2021/11/14 03:51:25;;;;;;;21.07;18.87;;;;;;;7.94;91.70;100990.41;5015326;28;20295;-77
2021/11/14 03:53:53;;;;;;;20.37;18.50;;;;;;;7.96;91.46;100975.69;5014497;28;20218;-77
2021/11/14 03:56:20;;;;;;;22.13;19.93;;;;;;;7.92;91.56;100979.16;5016342;28;20284;-77
2021/11/14 03:58:47;;;;;;;21.50;19.33;;;;;;;7.92;91.75;100986.09;5022266;28;20210;-77
2021/11/14 04:01:17;;;;;;;21.37;18.77;;;;;;;7.94;91.46;100995.63;5019259;28;20226;-77
2021/11/14 04:03:46;;;;;;;21.30;18.90;;;;;;;7.96;91.54;100980.88;5023522;28;20635;-78
2021/11/14 04:06:14;;;;;;;22.27;20.00;;;;;;;7.95;91.79;100988.72;5025282;28;20749;-77
2021/11/14 04:08:41;;;;;;;22.17;20.03;;;;;;;7.95;91.97;100979.16;5025622;28;20755;-77
2021/11/14 04:11:08;;;;;;;23.40;21.00;;;;;;;7.96;92.50;100990.41;5019998;28;20270;-77
2021/11/14 04:13:35;;;;;;;23.80;21.23;;;;;;;7.91;92.49;100993.03;5014369;28;20215;-77
2021/11/14 04:16:03;;;;;;;28.23;23.17;;;;;;;7.89;92.10;100981.75;5016442;28;20216;-78
2021/11/14 04:18:30;;;;;;;27.17;22.33;;;;;;;7.93;92.27;100975.69;5018241;28;20630;-77
2021/11/14 04:20:58;;;;;;;29.97;24.20;;;;;;;7.95;92.67;100983.50;5021984;28;20631;-77
2021/11/14 04:23:25;;;;;;;33.57;24.63;;;;;;;7.93;92.58;100983.50;5016949;28;20229;-77
2021/11/14 04:25:52;;;;;;;27.57;23.13;;;;;;;7.94;92.80;100982.63;5016358;28;20206;-77
2021/11/14 04:28:19;;;;;;;30.27;24.47;;;;;;;7.95;92.84;100981.75;5020173;28;20273;-77
2021/11/14 04:30:47;;;;;;;28.53;24.17;;;;;;;7.96;92.64;100978.28;5022120;28;20237;-77
2021/11/14 04:33:14;;;;;;;32.43;24.13;;;;;;;7.96;93.16;100980.88;5018022;28;20353;-77
2021/11/14 04:35:41;;;;;;;30.53;25.37;;;;;;;7.94;93.15;100982.63;5018630;28;20827;-77
2021/11/14 04:38:10;;;;;;;31.63;25.27;;;;;;;7.90;93.16;100978.28;5019380;28;20206;-77
2021/11/14 04:40:39;;;;;;;33.70;25.77;;;;;;;7.93;93.04;100967.03;5019224;28;20234;-77
2021/11/14 04:43:07;;;;;;;32.33;26.00;;;;;;;7.92;93.31;100980.91;5019853;28;20284;-77
2021/11/14 04:45:34;;;;;;;28.77;25.03;;;;;;;7.90;92.99;100978.28;5014235;28;20205;-77
2021/11/14 04:48:01;;;;;;;40.13;27.30;;;;;;;7.90;93.72;100985.22;5016921;28;20261;-78
2021/11/14 04:50:28;;;;;;;40.07;27.43;;;;;;;7.93;93.00;100982.63;5016844;28;20229;-79
2021/11/14 04:52:55;;;;;;;35.03;26.93;;;;;;;7.91;93.52;100980.03;5015774;28;20271;-79
2021/11/14 04:55:23;;;;;;;40.60;26.47;;;;;;;7.90;94.02;100985.22;5016324;28;20213;-79
2021/11/14 04:57:51;;;;;;;38.03;25.87;;;;;;;7.93;94.17;100980.91;5019917;28;20214;-78
2021/11/14 05:00:21;;;;;;;40.13;26.37;;;;;;;7.95;93.71;100986.97;5017903;28;20216;-79
2021/11/14 05:02:48;;;;;;;35.27;25.67;;;;;;;7.95;94.16;100986.97;5019837;28;20229;-79
2021/11/14 05:05:14;;;;;;;37.63;24.60;;;;;;;7.96;94.03;100995.63;5016935;28;20206;-79
2021/11/14 05:07:40;;;;;;;40.53;25.13;;;;;;;7.94;93.47;100998.22;5019394;28;20244;-79
2021/11/14 05:10:08;;;;;;;34.03;24.60;;;;;;;7.99;93.47;100989.53;5022178;28;20214;-79
2021/11/14 05:12:36;;;;;;;43.73;25.80;;;;;;;7.96;94.02;100993.88;5024088;28;20237;-79
2021/11/14 05:15:04;;;;;;;38.53;25.83;;;;;;;7.91;94.25;100985.22;5024862;28;20263;-79
2021/11/14 05:17:30;;;;;;;38.73;25.83;;;;;;;7.95;94.30;100984.38;5022032;28;20223;-79
2021/11/14 05:19:57;;;;;;;35.40;25.47;;;;;;;7.96;93.90;100988.69;5021301;28;20354;-79
2021/11/14 05:22:23;;;;;;;35.70;22.97;;;;;;;7.98;94.31;100995.63;5022756;28;20280;-79
2021/11/14 05:24:50;;;;;;;33.60;23.17;;;;;;;7.98;93.75;101001.69;5016609;28;20205;-79
2021/11/14 05:27:16;;;;;;;35.00;23.27;;;;;;;8.00;93.51;101001.69;5027246;28;20206;-80
2021/11/14 05:29:44;;;;;;;38.63;25.57;;;;;;;8.03;93.86;101004.31;5021799;28;20209;-79
2021/11/14 05:32:11;;;;;;;39.63;24.80;;;;;;;8.02;93.65;101019.03;5023071;28;20646;-78
2021/11/14 05:34:37;;;;;;;46.93;25.07;;;;;;;8.03;93.97;101019.91;5019445;28;20210;-79
2021/11/14 05:37:05;;;;;;;42.70;24.87;;;;;;;8.01;94.07;101006.00;5019666;28;20206;-79
2021/11/14 05:39:31;;;;;;;44.20;24.93;;;;;;;8.01;94.54;101009.50;5023962;28;20205;-80
2021/11/14 05:41:57;;;;;;;41.27;25.97;;;;;;;8.01;94.58;101013.81;5025276;28;20237;-78
2021/11/14 05:44:24;;;;;;;38.10;24.43;;;;;;;8.03;94.32;101010.38;5022283;28;20224;-79
2021/11/14 05:46:52;;;;;;;42.13;24.20;;;;;;;8.05;94.18;101020.78;5024130;28;20208;-78
2021/11/14 05:49:19;;;;;;;42.63;25.47;;;;;;;8.05;94.04;101024.25;5022533;28;20202;-78
2021/11/14 05:51:45;;;;;;;48.47;27.27;;;;;;;8.07;94.34;101026.84;5024000;28;20279;-78
2021/11/14 05:54:12;;;;;;;40.97;25.03;;;;;;;8.07;94.11;101032.91;5023641;28;20638;-79
2021/11/14 05:56:38;;;;;;;41.60;26.27;;;;;;;8.08;94.20;101039.81;5021196;28;20206;-79
2021/11/14 05:59:12;;;;;;;49.00;24.90;;;;;;;8.10;95.07;101026.84;5020814;28;20241;-79
2021/11/14 06:01:42;;;;;;;42.63;24.87;;;;;;;8.13;94.11;101034.66;5021306;28;20311;-79
2021/11/14 06:04:17;;;;;;;45.77;25.73;;;;;;;8.11;94.78;101041.59;5025631;28;20323;-79
2021/11/14 06:06:44;;;;;;;46.00;24.93;;;;;;;8.09;94.58;101043.31;5024539;28;20206;-79
2021/11/14 06:09:10;;;;;;;48.20;26.07;;;;;;;8.10;94.14;101053.69;5018108;28;20249;-79
2021/11/14 06:11:37;;;;;;;46.17;25.40;;;;;;;8.12;94.05;101053.69;5023394;28;20292;-80
2021/11/14 06:14:04;;;;;;;41.90;25.87;;;;;;;8.14;94.23;101064.97;5022817;28;20206;-79
2021/11/14 06:16:30;;;;;;;52.30;27.20;;;;;;;8.12;94.18;101064.97;5022471;28;20212;-79
2021/11/14 06:18:57;;;;;;;48.43;26.80;;;;;;;8.12;94.14;101069.31;5020692;28;20292;-79
2021/11/14 06:21:25;;;;;;;44.77;25.27;;;;;;;8.12;94.55;101077.09;5022915;28;20283;-79
2021/11/14 06:23:51;;;;;;;47.17;26.20;;;;;;;8.08;95.11;101071.03;5023997;28;20244;-80
2021/11/14 06:26:18;;;;;;;50.00;25.93;;;;;;;8.08;94.68;101080.56;5021820;28;20229;-79
2021/11/14 06:28:45;;;;;;;42.97;26.23;;;;;;;8.08;95.01;101078.81;5024474;28;20206;-79
2021/11/14 06:31:11;;;;;;;53.33;26.17;;;;;;;8.10;94.88;101079.69;5023141;28;20225;-80
2021/11/14 06:33:38;;;;;;;44.83;25.87;;;;;;;8.13;94.59;101095.31;5021118;28;20210;-79
2021/11/14 06:36:05;;;;;;;48.33;25.63;;;;;;;8.14;94.37;101094.44;5023009;28;20678;-80
2021/11/14 06:38:33;;;;;;;47.77;25.90;;;;;;;8.14;94.71;101098.78;5022586;28;20213;-80
2021/11/14 06:40:59;;;;;;;46.40;25.30;;;;;;;8.14;94.90;101114.38;5022242;28;20307;-79
2021/11/14 06:43:26;;;;;;;36.33;23.43;;;;;;;8.16;93.99;101120.44;5025014;28;20229;-79
2021/11/14 06:45:52;;;;;;;42.27;25.63;;;;;;;8.16;94.53;101117.84;5026236;28;20260;-78
2021/11/14 06:48:19;;;;;;;41.20;24.53;;;;;;;8.17;94.35;101119.59;5027094;28;20256;-79
2021/11/14 06:50:45;;;;;;;47.47;24.17;;;;;;;8.15;94.21;101130.00;5022215;28;20634;-79
2021/11/14 06:53:12;;;;;;;43.87;25.00;;;;;;;8.17;94.65;101130.00;5022970;28;20272;-80
2021/11/14 06:55:39;;;;;;;40.10;24.43;;;;;;;8.16;94.60;101131.72;5021663;28;20248;-79
2021/11/14 06:58:06;;;;;;;47.43;27.60;;;;;;;8.15;94.58;101129.13;5023117;28;20217;-79
2021/11/14 07:00:32;;;;;;;41.20;24.67;;;;;;;8.19;94.38;101130.88;5022008;28;20280;-80
2021/11/14 07:02:59;;;;;;;46.47;27.17;;;;;;;8.20;94.24;101145.59;5024327;28;20263;-80
2021/11/14 07:05:25;;;;;;;36.53;24.73;;;;;;;8.21;94.50;101149.09;5022258;28;20287;-79
2021/11/14 07:07:52;;;;;;;42.40;24.57;;;;;;;8.21;94.33;101155.16;5027365;28;20209;-81
2021/11/14 07:10:20;;;;;;;40.13;25.27;;;;;;;8.23;93.77;101163.81;5023225;28;20210;-78
2021/11/14 07:12:48;;;;;;;43.80;25.17;;;;;;;8.25;93.76;101164.69;5025182;28;20217;-79
2021/11/14 07:15:16;;;;;;;43.93;25.20;;;;;;;8.22;93.60;101167.25;5026754;28;20211;-79
2021/11/14 07:17:44;;;;;;;43.73;26.00;;;;;;;8.19;94.39;101162.06;5026946;28;20210;-79
2021/11/14 07:20:13;;;;;;;43.90;25.80;;;;;;;8.18;94.45;101175.94;5026621;28;20214;-80
2021/11/14 07:22:40;;;;;;;45.60;26.83;;;;;;;8.19;94.23;101180.28;5028377;28;20275;-79
2021/11/14 07:25:07;;;;;;;44.00;25.57;;;;;;;8.17;93.75;101182.00;5026591;28;20267;-79
2021/11/14 07:27:34;;;;;;;41.57;25.67;;;;;;;8.20;94.12;101184.59;5027767;28;20233;-79
2021/11/14 07:30:02;;;;;;;45.80;26.07;;;;;;;8.24;94.20;101188.94;5028092;28;20222;-79
2021/11/14 07:32:28;;;;;;;44.57;26.17;;;;;;;8.26;93.94;101199.34;5027532;28;20210;-78
2021/11/14 07:34:54;;;;;;;40.57;25.33;;;;;;;8.25;94.09;101201.09;5025411;28;20206;-78
2021/11/14 07:37:22;;;;;;;42.93;25.83;;;;;;;8.26;93.67;101209.75;5025768;28;20210;-79
2021/11/14 07:39:48;;;;;;;41.67;25.80;;;;;;;8.29;93.94;101218.44;5025401;28;20627;-79
2021/11/14 07:42:15;;;;;;;39.73;26.07;;;;;;;8.29;94.24;101223.66;5026057;28;20229;-78
2021/11/14 07:44:41;;;;;;;43.47;27.03;;;;;;;8.28;93.50;101228.84;5026011;28;20887;-79
2021/11/14 07:47:09;;;;;;;38.37;26.10;;;;;;;8.29;93.54;101230.59;5025705;28;20208;-78
2021/11/14 07:49:36;;;;;;;41.43;25.70;;;;;;;8.30;93.54;101229.72;5025414;28;20214;-78
2021/11/14 07:52:02;;;;;;;41.23;26.47;;;;;;;8.30;93.84;101238.38;5027541;28;20237;-80
2021/11/14 07:54:28;;;;;;;37.83;25.83;;;;;;;8.29;93.77;101249.66;5027341;28;20207;-80
2021/11/14 07:56:55;;;;;;;40.73;25.97;;;;;;;8.28;94.34;101240.09;5026734;28;20210;-77
2021/11/14 07:59:21;;;;;;;41.63;26.90;;;;;;;8.33;93.54;101238.41;5018764;28;20269;-78
2021/11/14 08:01:48;;;;;;;41.80;26.40;;;;;;;8.31;93.63;101237.53;5018161;28;20233;-77
2021/11/14 08:04:15;;;;;;;44.83;28.23;;;;;;;8.29;93.96;101247.06;5018220;28;20228;-78
2021/11/14 08:06:42;;;;;;;39.23;26.80;;;;;;;8.29;94.10;101241.84;5013900;28;20264;-76
2021/11/14 08:09:09;;;;;;;38.60;25.77;;;;;;;8.32;93.79;101241.00;5025106;28;20263;-81
2021/11/14 08:11:35;;;;;;;38.83;24.73;;;;;;;8.31;94.00;101253.13;5026010;28;20259;-77
2021/11/14 08:14:01;;;;;;;33.17;25.87;;;;;;;8.32;93.40;101254.00;5024293;28;20214;-78
2021/11/14 08:16:28;;;;;;;37.87;25.07;;;;;;;8.33;94.00;101261.81;5022013;28;20221;-80
2021/11/14 08:18:54;;;;;;;40.23;26.43;;;;;;;8.30;93.47;101267.00;5018671;28;20209;-79
2021/11/14 08:21:22;;;;;;;38.07;25.70;;;;;;;8.30;93.78;101269.59;5023918;28;20225;-78
2021/11/14 08:23:48;;;;;;;36.43;26.10;;;;;;;8.33;93.88;101267.00;5028551;28;20793;-80
2021/11/14 08:26:15;;;;;;;38.33;25.60;;;;;;;8.32;93.78;101280.91;5023196;28;20741;-80
2021/11/14 08:28:41;;;;;;;38.97;25.93;;;;;;;8.31;93.93;101279.16;5023855;28;20214;-81
2021/11/14 08:31:09;;;;;;;43.63;32.78;;;;;;;8.38;93.84;101279.16;5023028;28;20505;-79
2021/11/14 08:33:35;;;;;;;39.80;27.47;;;;;;;8.40;93.81;101283.50;5020980;28;20697;-78
2021/11/14 08:36:01;;;;;;;40.37;27.83;;;;;;;8.41;93.12;101294.81;5019741;28;20214;-80
2021/11/14 08:38:29;;;;;;;36.90;25.40;;;;;;;8.43;93.21;101308.72;5020056;28;20272;-79
2021/11/14 08:40:56;;;;;;;33.77;25.80;;;;;;;8.42;92.80;101317.38;5023523;28;20232;-80
2021/11/14 08:43:25;;;;;;;37.90;25.40;;;;;;;8.42;93.38;101312.16;5021247;28;20232;-78
2021/11/14 08:45:51;;;;;;;36.43;24.63;;;;;;;8.39;93.49;101314.75;5022762;28;20218;-80
2021/11/14 08:48:18;;;;;;;43.30;25.77;;;;;;;8.39;93.16;101315.59;5026503;28;20207;-84
2021/11/14 08:50:46;;;;;;;36.90;24.97;;;;;;;8.40;92.87;101314.72;5026011;28;20226;-82
2021/11/14 08:53:13;;;;;;;40.13;26.17;;;;;;;8.38;93.41;101324.25;5026611;28;20206;-82
2021/11/14 08:55:41;;;;;;;35.60;24.67;;;;;;;8.38;93.54;101319.06;5022146;28;20248;-78
2021/11/14 08:58:07;;;;;;;37.73;26.67;;;;;;;8.40;93.72;101319.94;5017742;28;20218;-78
2021/11/14 09:00:34;;;;;;;39.87;27.03;;;;;;;8.38;93.70;101316.44;5023136;28;20662;-80
2021/11/14 09:03:02;;;;;;;39.10;26.07;;;;;;;8.40;94.00;101312.13;5022325;28;20626;-78
2021/11/14 09:05:31;;;;;;;44.20;29.27;;;;;;;8.41;94.05;101300.91;5016450;28;20230;-77
2021/11/14 09:08:00;;;;;;;38.97;26.67;;;;;;;8.40;94.17;101313.84;5015392;28;20633;-79
2021/11/14 09:10:27;;;;;;;73.53;40.33;;;;;;;8.43;93.72;101316.53;5018300;28;20771;-82
2021/11/14 09:12:56;;;;;;;56.20;32.90;;;;;;;8.45;93.90;101325.19;5019438;28;20225;-80
2021/11/14 09:15:24;;;;;;;46.17;30.10;;;;;;;8.48;93.44;101322.59;5018498;28;20256;-79
2021/11/14 09:17:51;;;;;;;65.40;39.83;;;;;;;8.51;93.82;101326.09;5022547;28;20676;-79
2021/11/14 09:20:17;;;;;;;48.47;32.23;;;;;;;8.53;93.78;101339.97;5019546;28;20210;-79
2021/11/14 09:22:44;;;;;;;55.50;34.97;;;;;;;8.55;93.25;101346.03;5017929;28;20205;-78
2021/11/14 09:25:11;;;;;;;41.57;28.30;;;;;;;8.55;93.37;101353.84;5012850;28;20778;-77
2021/11/14 09:27:38;;;;;;;52.40;32.73;;;;;;;8.58;93.64;101353.00;5017948;28;20212;-80
2021/11/14 09:30:08;;;;;;;62.93;34.23;;;;;;;8.61;93.37;101362.56;5020140;28;20213;-79
2021/11/14 09:32:35;;;;;;;88.87;46.50;;;;;;;8.61;93.50;101372.97;5023154;28;20202;-80
2021/11/14 09:35:02;;;;;;;75.17;43.47;;;;;;;8.62;93.32;101375.59;5020949;28;20210;-79
2021/11/14 09:37:28;;;;;;;51.97;33.23;;;;;;;8.64;93.35;101367.75;5014506;28;20213;-77
2021/11/14 09:39:55;;;;;;;49.30;32.00;;;;;;;8.65;93.37;101379.94;5019522;28;20213;-81
2021/11/14 09:42:24;;;;;;;51.80;32.50;;;;;;;8.68;93.01;101391.22;5023562;28;20236;-79
2021/11/14 09:44:52;;;;;;;42.87;30.70;;;;;;;8.68;93.29;101390.34;5020759;28;20225;-78
2021/11/14 09:47:20;;;;;;;63.13;37.60;;;;;;;8.72;93.48;101385.16;5020980;28;20217;-79
2021/11/14 09:49:46;;;;;;;67.90;40.43;;;;;;;8.75;93.64;101373.88;5021142;28;20207;-80
2021/11/14 09:52:13;;;;;;;38.13;26.70;;;;;;;8.78;92.63;101404.25;5024247;28;20581;-80
2021/11/14 09:54:41;;;;;;;52.77;34.17;;;;;;;8.80;92.10;101421.66;5022131;28;21180;-80
2021/11/14 09:57:09;;;;;;;51.63;33.10;;;;;;;8.82;92.16;101426.84;5021611;28;20224;-80
2021/11/14 09:59:36;;;;;;;58.80;37.83;;;;;;;8.79;91.97;101432.03;5022515;28;20206;-80
2021/11/14 10:02:04;;;;;;;53.57;34.30;;;;;;;8.82;92.14;101437.25;5023987;28;20236;-80
2021/11/14 10:04:32;;;;;;;52.77;34.57;;;;;;;8.81;91.79;101448.53;5026222;28;20234;-83
2021/11/14 10:07:03;;;;;;;51.87;34.00;;;;;;;8.81;91.94;101445.94;5024838;28;20718;-81
2021/11/14 10:09:31;;;;;;;42.73;31.57;;;;;;;8.84;91.90;101452.03;5025764;28;20226;-81
2021/11/14 10:11:58;;;;;;;48.63;29.80;;;;;;;8.87;91.60;101459.84;5023703;28;20791;-79
2021/11/14 10:14:25;;;;;;;45.90;32.73;;;;;;;8.85;92.00;101458.09;5026046;28;20202;-79
2021/11/14 10:16:51;;;;;;;40.27;30.13;;;;;;;8.84;92.13;101457.25;5020835;28;20201;-83
2021/11/14 10:19:18;;;;;;;43.73;30.57;;;;;;;8.87;92.59;101439.00;5026287;28;20264;-81
2021/11/14 10:21:47;;;;;;;50.07;32.47;;;;;;;8.92;92.29;101426.91;5022283;28;20283;-82
2021/11/14 10:24:15;;;;;;;49.50;32.33;;;;;;;8.96;92.26;101438.19;5024932;28;20651;-82
2021/11/14 10:26:41;;;;;;;43.73;30.77;;;;;;;9.01;91.79;101441.69;5025336;28;20236;-82
2021/11/14 10:29:10;;;;;;;56.40;34.87;;;;;;;9.01;91.80;101454.69;5022535;28;20234;-79
2021/11/14 10:31:38;;;;;;;41.77;31.17;;;;;;;9.04;91.77;101459.94;5022889;28;20224;-81
2021/11/14 10:34:05;;;;;;;43.63;29.00;;;;;;;9.06;90.97;101476.44;5026683;28;20209;-82
2021/11/14 10:36:32;;;;;;;42.27;29.80;;;;;;;9.07;91.43;101475.56;5026145;28;20217;-84
2021/11/14 10:39:03;;;;;;;43.83;30.73;;;;;;;9.07;91.04;101475.56;5027140;28;20360;-80
2021/11/14 10:41:30;;;;;;;49.60;32.23;;;;;;;9.09;91.33;101476.44;5022979;28;20236;-83
2021/11/14 10:44:12;;;;;;;40.00;29.77;;;;;;;9.10;91.29;101474.72;4676420;28;9999794;-83
2021/11/14 10:46:39;;;;;;;45.13;31.30;;;;;;;9.15;90.55;101484.25;5026438;28;20241;-83
2021/11/14 10:49:07;;;;;;;40.20;29.20;;;;;;;9.17;90.97;101491.22;5027908;28;20274;-83
2021/11/14 10:51:36;;;;;;;45.63;34.23;;;;;;;9.21;90.57;101493.84;5028129;28;20712;-83
2021/11/14 10:54:04;;;;;;;39.80;30.20;;;;;;;9.22;90.13;101510.38;5029325;28;20203;-83
2021/11/14 10:56:30;;;;;;;42.70;30.47;;;;;;;9.22;90.10;101503.41;5029754;28;20264;-82
2021/11/14 10:58:57;;;;;;;56.53;35.70;;;;;;;9.23;90.04;101520.75;5028667;28;20237;-83
2021/11/14 11:01:24;;;;;;;37.87;28.50;;;;;;;9.21;89.84;101524.22;5028201;28;20227;-84
2021/11/14 11:03:53;;;;;;;36.80;26.10;;;;;;;9.22;89.60;101536.41;5027606;28;20218;-82
2021/11/14 11:06:25;;;;;;;44.67;28.13;;;;;;;9.19;89.83;101539.00;5027559;28;20221;-83
2021/11/14 11:08:52;;;;;;;39.70;29.20;;;;;;;9.15;89.74;101525.94;5027095;28;20202;-83
2021/11/14 11:11:22;;;;;;;38.30;28.10;;;;;;;9.15;90.08;101517.25;5025914;28;20231;-83
2021/11/14 11:13:50;;;;;;;40.47;27.00;;;;;;;9.18;89.87;101519.91;5029573;28;20218;-84
2021/11/14 11:16:20;;;;;;;38.67;28.77;;;;;;;9.21;89.80;101538.13;5028369;28;20214;-83